Time;durP1;ratioP1;P1;durP2;ratioP2;P2;SDS_P1;SDS_P2;PMS_P1;PMS_P2;Temp;Humidity;BMP_temperature;BMP_pressure;BME280_temperature;BME280_humidity;BME280_pressure;Samples;Min_cycle;Max_cycle;Signal;HPM_P1;HPM_P2
2023/01/01 00:01:58;;;;;;;8.83;2.00;;;24.90;99.90;;;;;;5071447;28;20172;-74
2023/01/01 00:04:26;;;;;;;8.20;2.17;;;25.00;99.90;;;;;;5089591;28;20190;-72
2023/01/01 00:06:54;;;;;;;8.30;1.40;;;24.90;99.90;;;;;;5091078;28;20228;-73
2023/01/01 00:12:08;;;;;;;8.27;1.70;;;25.00;99.90;;;;;;5039324;28;20227;-73
2023/01/01 00:14:38;;;;;;;8.50;1.70;;;25.10;99.90;;;;;;5090664;28;20286;-74
2023/01/01 00:17:05;;;;;;;9.83;1.40;;;25.30;99.90;;;;;;5080868;28;20210;-74
2023/01/01 00:19:32;;;;;;;7.70;1.57;;;25.40;99.90;;;;;;5088449;28;20246;-74
2023/01/01 00:22:00;;;;;;;6.97;1.37;;;25.40;99.90;;;;;;5091152;28;20186;-73
2023/01/01 00:24:27;;;;;;;7.33;1.30;;;25.70;99.90;;;;;;5090523;28;20184;-73
2023/01/01 00:26:55;;;;;;;8.50;1.83;;;25.90;99.90;;;;;;5091496;28;20183;-72
2023/01/01 00:29:22;;;;;;;5.60;2.23;;;26.00;99.90;;;;;;5094016;28;20171;-74
2023/01/01 00:31:49;;;;;;;9.27;1.73;;;26.10;99.90;;;;;;5094557;28;20187;-74
2023/01/01 00:34:17;;;;;;;7.23;1.60;;;26.30;99.90;;;;;;5077892;28;20195;-74
2023/01/01 00:36:44;;;;;;;6.97;1.57;;;26.30;99.90;;;;;;5074436;28;20172;-74
2023/01/01 00:39:11;;;;;;;7.57;1.90;;;26.40;99.90;;;;;;5091620;28;20286;-73
2023/01/01 00:41:39;;;;;;;5.87;1.77;;;26.60;99.90;;;;;;5094971;28;20176;-74
2023/01/01 00:44:06;;;;;;;6.87;1.70;;;27.10;99.90;;;;;;5089258;28;20238;-73
2023/01/01 00:46:34;;;;;;;8.37;1.80;;;27.30;99.90;;;;;;5094586;28;20179;-74
2023/01/01 00:49:01;;;;;;;7.67;1.90;;;27.30;99.90;;;;;;5093140;28;20641;-74
2023/01/01 00:51:29;;;;;;;9.97;2.00;;;27.30;99.90;;;;;;5090831;28;20221;-73
2023/01/01 00:53:56;;;;;;;8.57;1.70;;;27.30;99.90;;;;;;5083339;28;20233;-77
2023/01/01 00:56:24;;;;;;;5.30;1.77;;;27.70;99.90;;;;;;5078358;28;20203;-73
2023/01/01 00:58:51;;;;;;;7.67;1.70;;;28.00;99.90;;;;;;5081850;28;20180;-72
2023/01/01 01:01:18;;;;;;;6.77;1.60;;;28.60;99.90;;;;;;5082632;28;20321;-73
2023/01/01 01:03:46;;;;;;;8.57;2.13;;;29.10;99.90;;;;;;5083184;28;20268;-74
2023/01/01 01:06:16;;;;;;;8.23;1.50;;;29.50;99.90;;;;;;5083922;28;20168;-74
2023/01/01 01:08:45;;;;;;;8.60;1.70;;;29.90;99.90;;;;;;5086552;28;20653;-74
2023/01/01 01:11:18;;;;;;;8.90;1.70;;;30.80;99.90;;;;;;5094502;28;20223;-74
2023/01/01 01:13:48;;;;;;;5.80;1.57;;;30.90;99.90;;;;;;5093172;28;20303;-73
2023/01/01 01:16:18;;;;;;;7.73;1.57;;;31.40;99.90;;;;;;5088632;28;20329;-74
2023/01/01 01:18:46;;;;;;;8.97;1.70;;;31.80;99.90;;;;;;5075329;28;20176;-74
2023/01/01 01:21:19;;;;;;;5.67;1.90;;;31.80;99.90;;;;;;5075730;28;20668;-75
2023/01/01 01:23:47;;;;;;;7.72;1.90;;;31.90;99.90;;;;;;5077699;28;20255;-73
2023/01/01 01:26:16;;;;;;;5.97;1.53;;;31.90;99.90;;;;;;5090959;28;20178;-73
2023/01/01 01:28:44;;;;;;;8.63;1.77;;;32.00;99.90;;;;;;5089756;28;20776;-73
2023/01/01 01:31:13;;;;;;;9.23;1.73;;;32.00;99.90;;;;;;5073826;28;20179;-73
2023/01/01 01:33:42;;;;;;;6.70;1.60;;;31.90;99.90;;;;;;5073768;28;20208;-72
2023/01/01 01:36:11;;;;;;;7.17;1.80;;;32.10;99.90;;;;;;5076986;28;20171;-72
2023/01/01 01:38:38;;;;;;;7.97;1.93;;;32.40;99.90;;;;;;5086364;28;20176;-74
2023/01/01 01:41:06;;;;;;;11.73;2.33;;;31.40;99.90;;;;;;5084932;28;20178;-73
2023/01/01 01:43:34;;;;;;;6.97;1.87;;;31.20;99.90;;;;;;5093640;28;20180;-74
2023/01/01 01:46:24;;;;;;;8.33;2.33;;;30.70;99.90;;;;;;5073267;28;20526;-73
2023/01/01 01:48:52;;;;;;;8.77;2.07;;;30.20;99.90;;;;;;5073394;28;20172;-73
2023/01/01 01:51:34;;;;;;;9.03;2.07;;;29.70;99.90;;;;;;5076789;28;20171;-73
2023/01/01 01:54:06;;;;;;;9.10;2.47;;;29.90;99.90;;;;;;5074988;28;20212;-73
2023/01/01 01:56:43;;;;;;;8.60;2.33;;;29.80;99.90;;;;;;5081852;28;20180;-73
2023/01/01 01:59:10;;;;;;;7.93;2.10;;;29.20;99.90;;;;;;5082365;28;20187;-73
2023/01/01 02:01:38;;;;;;;10.47;2.10;;;28.80;99.90;;;;;;5090986;28;20546;-73
2023/01/01 02:04:06;;;;;;;7.70;1.83;;;28.40;99.90;;;;;;5074545;28;20176;-74
2023/01/01 02:06:37;;;;;;;11.73;2.30;;;28.00;99.90;;;;;;5093250;28;20175;-73
2023/01/01 02:09:06;;;;;;;9.97;2.57;;;28.00;99.90;;;;;;5092987;28;20653;-73
2023/01/01 02:11:34;;;;;;;6.73;2.10;;;27.90;99.90;;;;;;5092490;28;20656;-73
2023/01/01 02:14:03;;;;;;;9.40;1.80;;;27.80;99.90;;;;;;5077565;28;20213;-74
2023/01/01 02:17:02;;;;;;;5.77;1.87;;;27.70;99.90;;;;;;5072805;28;20180;-74
2023/01/01 02:20:07;;;;;;;7.07;2.03;;;27.50;99.90;;;;;;5071941;28;20195;-73
2023/01/01 02:22:59;;;;;;;11.90;2.47;;;27.20;99.90;;;;;;5081477;28;20186;-73
2023/01/01 02:25:45;;;;;;;6.23;1.90;;;27.00;99.90;;;;;;5090882;28;20218;-74
2023/01/01 02:28:46;;;;;;;12.33;2.93;;;26.80;99.90;;;;;;5092469;28;20219;-73
2023/01/01 02:31:18;;;;;;;8.53;2.20;;;26.70;99.90;;;;;;5093122;28;20688;-73
2023/01/01 02:33:47;;;;;;;5.60;2.00;;;26.70;99.90;;;;;;5092442;28;20238;-72
2023/01/01 02:36:14;;;;;;;6.70;1.57;;;27.20;99.90;;;;;;5075826;28;20553;-73
2023/01/01 02:38:46;;;;;;;6.93;1.90;;;27.40;99.90;;;;;;5081917;28;20182;-72
2023/01/01 02:41:21;;;;;;;7.77;2.00;;;27.50;99.90;;;;;;5088885;28;20253;-73
2023/01/01 02:43:48;;;;;;;11.93;1.93;;;28.00;99.90;;;;;;5072357;28;20175;-74
2023/01/01 02:46:15;;;;;;;8.50;1.67;;;28.40;99.90;;;;;;5088760;28;20541;-73
2023/01/01 02:48:48;;;;;;;3.67;1.23;;;28.70;99.90;;;;;;5083766;28;20175;-74
2023/01/01 02:51:28;;;;;;;3.67;1.37;;;28.70;99.90;;;;;;5072503;28;20178;-74
2023/01/01 02:54:04;;;;;;;3.10;1.03;;;28.60;99.90;;;;;;5072491;28;20215;-75
2023/01/01 02:56:54;;;;;;;4.00;1.07;;;28.50;99.90;;;;;;5089700;28;20202;-75
2023/01/01 03:02:39;;;;;;;4.27;1.50;;;28.40;99.90;;;;;;5092558;28;20266;-73
2023/01/01 03:05:18;;;;;;;6.20;1.83;;;28.00;99.90;;;;;;5085523;28;20214;-74
2023/01/01 03:07:48;;;;;;;8.00;2.00;;;28.10;99.90;;;;;;5072066;28;20180;-73
2023/01/01 03:10:23;;;;;;;8.23;2.20;;;28.30;99.90;;;;;;5071839;28;20223;-74
2023/01/01 03:12:56;;;;;;;5.53;1.60;;;28.40;99.90;;;;;;5079008;28;20581;-73
2023/01/01 03:15:40;;;;;;;10.53;1.77;;;28.40;99.90;;;;;;5082184;28;20588;-73
2023/01/01 03:18:22;;;;;;;12.60;2.67;;;28.70;99.90;;;;;;5072025;28;20536;-73
2023/01/01 03:20:53;;;;;;;14.00;2.73;;;28.70;99.90;;;;;;5092184;28;20300;-73
2023/01/01 03:23:29;;;;;;;6.03;2.00;;;29.00;99.90;;;;;;5090659;28;20177;-73
2023/01/01 03:26:01;;;;;;;7.80;1.77;;;29.40;99.90;;;;;;5089100;28;20179;-72
2023/01/01 03:28:45;;;;;;;8.63;2.07;;;29.30;99.90;;;;;;5092089;28;20605;-73
2023/01/01 03:31:17;;;;;;;9.70;2.13;;;29.10;99.90;;;;;;5078533;28;20176;-74
2023/01/01 03:33:49;;;;;;;7.80;1.90;;;28.80;99.90;;;;;;5071357;28;20618;-74
2023/01/01 03:36:26;;;;;;;6.47;1.47;;;29.10;99.90;;;;;;5070394;28;20187;-75
2023/01/01 03:39:02;;;;;;;10.63;2.03;;;29.50;99.90;;;;;;5071847;28;20266;-75
2023/01/01 03:41:48;;;;;;;8.37;2.20;;;29.40;99.90;;;;;;5071442;28;20180;-74
2023/01/01 03:44:31;;;;;;;10.23;1.67;;;29.20;99.90;;;;;;5073796;28;20186;-74
2023/01/01 03:46:59;;;;;;;8.97;2.30;;;29.70;99.90;;;;;;5091017;28;20190;-74
2023/01/01 03:49:29;;;;;;;6.13;1.83;;;29.90;99.90;;;;;;5091063;28;20256;-75
2023/01/01 03:52:06;;;;;;;7.43;1.90;;;29.60;99.90;;;;;;5088000;28;20207;-73
2023/01/01 03:54:33;;;;;;;9.20;2.07;;;29.20;99.90;;;;;;5076576;28;20211;-73
2023/01/01 03:57:51;;;;;;;6.90;1.97;;;29.40;99.90;;;;;;5091475;28;20225;-75
2023/01/01 04:00:26;;;;;;;8.90;1.93;;;29.70;99.90;;;;;;5042510;28;20210;-75
2023/01/01 04:03:02;;;;;;;9.33;2.20;;;29.40;99.90;;;;;;5071958;28;20178;-75
2023/01/01 04:05:32;;;;;;;8.13;2.00;;;29.60;99.90;;;;;;5076359;28;20233;-74
2023/01/01 04:08:02;;;;;;;7.83;2.20;;;29.60;99.90;;;;;;5075571;28;20172;-75
2023/01/01 04:10:32;;;;;;;9.43;2.43;;;30.00;99.90;;;;;;5073335;28;20250;-75
2023/01/01 04:13:04;;;;;;;5.90;1.47;;;30.10;99.90;;;;;;5075394;28;20220;-74
2023/01/01 04:15:34;;;;;;;7.73;1.67;;;30.00;99.90;;;;;;5084967;28;20178;-74
2023/01/01 04:18:02;;;;;;;10.63;1.87;;;30.20;99.90;;;;;;5095151;28;20171;-74
2023/01/01 04:20:30;;;;;;;12.47;1.73;;;30.20;99.90;;;;;;5085866;28;20618;-74
2023/01/01 04:22:59;;;;;;;7.17;1.60;;;30.50;99.90;;;;;;5075208;28;20171;-74
2023/01/01 04:25:27;;;;;;;7.23;1.67;;;30.20;99.90;;;;;;5083335;28;20187;-74
2023/01/01 04:27:55;;;;;;;6.87;1.90;;;29.60;99.90;;;;;;5095369;28;20519;-74
2023/01/01 04:30:22;;;;;;;8.27;2.10;;;29.30;99.90;;;;;;5095092;28;20210;-73
2023/01/01 04:32:50;;;;;;;7.30;1.53;;;29.20;99.90;;;;;;5094962;28;20219;-73
2023/01/01 04:35:18;;;;;;;6.83;1.97;;;28.90;99.90;;;;;;5093560;28;20171;-73
2023/01/01 04:37:45;;;;;;;7.30;1.57;;;29.10;99.90;;;;;;5095153;28;20183;-73
2023/01/01 04:40:14;;;;;;;7.93;1.83;;;28.90;99.90;;;;;;5083668;28;20185;-73
2023/01/01 04:42:42;;;;;;;8.27;1.93;;;28.80;99.90;;;;;;5085472;28;20179;-73
2023/01/01 04:45:13;;;;;;;5.57;1.67;;;29.00;99.90;;;;;;5083073;28;20180;-74
2023/01/01 04:47:41;;;;;;;7.77;1.77;;;29.50;99.90;;;;;;5084555;28;20240;-73
2023/01/01 04:50:09;;;;;;;9.00;2.07;;;30.10;99.90;;;;;;5084134;28;20263;-73
2023/01/01 04:52:36;;;;;;;9.53;1.83;;;30.10;99.90;;;;;;5083310;28;20632;-73
2023/01/01 04:55:04;;;;;;;5.87;1.53;;;30.60;99.90;;;;;;5084257;28;20187;-73
2023/01/01 04:57:32;;;;;;;8.97;2.33;;;30.60;99.90;;;;;;5080980;28;20649;-73
2023/01/01 04:59:59;;;;;;;7.77;1.70;;;30.30;99.90;;;;;;5084830;28;20176;-73
2023/01/01 05:02:27;;;;;;;8.67;2.53;;;30.30;99.90;;;;;;5081731;28;20296;-73
2023/01/01 05:04:54;;;;;;;8.33;1.87;;;30.30;99.90;;;;;;5083807;28;20201;-73
2023/01/01 05:07:22;;;;;;;10.73;2.70;;;30.10;99.90;;;;;;5083262;28;20182;-73
2023/01/01 05:09:49;;;;;;;6.20;1.80;;;30.00;99.90;;;;;;5084251;28;20192;-73
2023/01/01 05:12:16;;;;;;;10.50;2.50;;;29.70;99.90;;;;;;5082519;28;20235;-73
2023/01/01 05:14:44;;;;;;;9.17;1.90;;;29.40;99.90;;;;;;5082843;28;20175;-74
2023/01/01 05:17:11;;;;;;;8.87;2.23;;;29.30;99.90;;;;;;5081367;28;20179;-72
2023/01/01 05:23:01;;;;;;;11.50;2.47;;;29.30;99.90;;;;;;5085087;28;20324;-73
2023/01/01 05:25:28;;;;;;;8.47;2.10;;;29.10;99.90;;;;;;5082625;28;20187;-74
2023/01/01 05:27:55;;;;;;;14.07;2.63;;;29.40;99.90;;;;;;5094043;28;20180;-73
2023/01/01 05:30:23;;;;;;;9.97;2.53;;;29.60;99.90;;;;;;5093775;28;20180;-74
2023/01/01 05:32:50;;;;;;;11.83;2.10;;;30.20;99.90;;;;;;5092989;28;20214;-73
2023/01/01 05:35:17;;;;;;;8.57;1.63;;;29.80;99.90;;;;;;5084629;28;20192;-72
2023/01/01 05:37:45;;;;;;;7.30;2.10;;;29.40;99.90;;;;;;5073442;28;20580;-74
2023/01/01 05:40:12;;;;;;;11.10;2.13;;;28.90;99.90;;;;;;5077258;28;20171;-75
2023/01/01 05:42:40;;;;;;;10.70;2.47;;;28.90;99.90;;;;;;5093567;28;20686;-74
2023/01/01 05:45:07;;;;;;;13.17;2.33;;;29.40;99.90;;;;;;5083025;28;20197;-74
2023/01/01 05:47:35;;;;;;;5.37;1.90;;;29.70;99.90;;;;;;5072867;28;20302;-73
2023/01/01 05:50:02;;;;;;;11.63;1.80;;;29.60;99.90;;;;;;5071979;28;20198;-72
2023/01/01 05:52:29;;;;;;;9.17;1.80;;;29.30;99.90;;;;;;5072900;28;20249;-74
2023/01/01 05:54:57;;;;;;;8.83;1.57;;;29.30;99.90;;;;;;5084284;28;20480;-71
2023/01/01 05:57:24;;;;;;;11.97;2.10;;;29.50;99.90;;;;;;5085211;28;20666;-73
2023/01/01 05:59:52;;;;;;;9.00;2.13;;;29.40;99.90;;;;;;5082147;28;20183;-71
2023/01/01 06:02:22;;;;;;;8.67;1.77;;;29.00;99.90;;;;;;5083141;28;20488;-72
2023/01/01 06:04:49;;;;;;;7.80;1.87;;;28.80;99.90;;;;;;5082519;28;20211;-72
2023/01/01 06:07:16;;;;;;;9.20;1.80;;;29.00;99.90;;;;;;5087105;28;20199;-73
2023/01/01 06:09:44;;;;;;;8.40;1.70;;;29.20;99.90;;;;;;5091881;28;20190;-73
2023/01/01 06:12:11;;;;;;;6.87;1.90;;;28.70;99.90;;;;;;5085556;28;20226;-72
2023/01/01 06:14:38;;;;;;;12.90;1.87;;;28.50;99.90;;;;;;5084128;28;20187;-72
2023/01/01 06:17:06;;;;;;;8.93;2.23;;;28.90;99.90;;;;;;5072565;28;20278;-72
2023/01/01 06:19:33;;;;;;;9.83;1.87;;;29.40;99.90;;;;;;5072739;28;20176;-72
2023/01/01 06:22:00;;;;;;;11.17;2.33;;;28.90;99.90;;;;;;5072620;28;20259;-72
2023/01/01 06:24:28;;;;;;;8.70;2.43;;;28.50;99.90;;;;;;5072370;28;20187;-72
2023/01/01 06:26:55;;;;;;;7.90;1.47;;;28.30;99.90;;;;;;5072419;28;20182;-73
2023/01/01 06:29:22;;;;;;;13.83;2.40;;;28.10;99.90;;;;;;5092629;28;20709;-74
2023/01/01 06:31:50;;;;;;;10.87;1.90;;;28.00;99.90;;;;;;5092757;28;20639;-74
2023/01/01 06:34:17;;;;;;;7.30;2.07;;;28.30;99.90;;;;;;5087584;28;20218;-74
2023/01/01 06:36:45;;;;;;;10.13;2.27;;;28.20;99.90;;;;;;5072508;28;20180;-73
2023/01/01 06:39:12;;;;;;;6.43;1.80;;;28.30;99.90;;;;;;5072146;28;20748;-73
2023/01/01 06:41:39;;;;;;;9.07;2.10;;;28.20;99.90;;;;;;5072337;28;20184;-73
2023/01/01 06:44:07;;;;;;;5.33;1.63;;;28.30;99.90;;;;;;5072623;28;20187;-74
2023/01/01 06:46:35;;;;;;;5.17;1.97;;;28.50;99.90;;;;;;5090893;28;20185;-73
2023/01/01 06:49:06;;;;;;;7.77;1.93;;;28.70;99.90;;;;;;5092391;28;20232;-74
2023/01/01 06:51:38;;;;;;;12.27;2.57;;;28.40;99.90;;;;;;5092268;28;20218;-73
2023/01/01 06:54:06;;;;;;;6.23;1.80;;;27.90;99.90;;;;;;5091704;28;20214;-73
2023/01/01 06:56:34;;;;;;;8.43;2.43;;;27.70;99.90;;;;;;5072212;28;20205;-73
2023/01/01 06:59:02;;;;;;;8.27;1.80;;;27.80;99.90;;;;;;5072065;28;20206;-73
2023/01/01 07:01:32;;;;;;;12.37;2.50;;;28.00;99.90;;;;;;5074197;28;20240;-72
2023/01/01 07:04:06;;;;;;;8.43;2.47;;;27.50;99.90;;;;;;5092233;28;20183;-73
2023/01/01 07:06:34;;;;;;;10.50;2.37;;;27.10;99.90;;;;;;5072128;28;20265;-73
2023/01/01 07:09:02;;;;;;;9.63;2.20;;;27.10;99.90;;;;;;5071706;28;20176;-73
2023/01/01 07:11:30;;;;;;;12.17;2.10;;;26.90;99.90;;;;;;5071753;28;20231;-72
2023/01/01 07:13:57;;;;;;;8.97;2.20;;;27.00;99.90;;;;;;5075739;28;20736;-71
2023/01/01 07:16:26;;;;;;;13.20;2.10;;;27.00;99.90;;;;;;5078159;28;20214;-72
2023/01/01 07:18:53;;;;;;;11.73;2.57;;;26.80;99.90;;;;;;5073111;28;20184;-72
2023/01/01 07:21:38;;;;;;;12.97;2.00;;;26.80;99.90;;;;;;5071728;28;20237;-72
2023/01/01 07:24:09;;;;;;;11.43;2.00;;;27.20;99.90;;;;;;5072576;28;20267;-72
2023/01/01 07:26:36;;;;;;;10.20;2.27;;;27.30;99.90;;;;;;5071766;28;20175;-72
2023/01/01 07:29:04;;;;;;;9.97;2.30;;;27.40;99.90;;;;;;5071867;28;20176;-72
2023/01/01 07:31:32;;;;;;;12.10;2.17;;;27.40;99.90;;;;;;5071978;28;20715;-72
2023/01/01 07:33:59;;;;;;;12.33;2.40;;;27.10;99.90;;;;;;5089153;28;20554;-72
2023/01/01 07:36:26;;;;;;;14.57;2.43;;;27.00;99.90;;;;;;5071855;28;20186;-72
2023/01/01 07:38:54;;;;;;;13.57;2.30;;;26.60;99.90;;;;;;5070739;28;20178;-72
2023/01/01 07:41:21;;;;;;;11.97;2.43;;;26.40;99.90;;;;;;5071605;28;20211;-73
2023/01/01 07:43:48;;;;;;;11.37;2.77;;;26.40;99.90;;;;;;5072367;28;20184;-72
2023/01/01 07:46:17;;;;;;;11.63;2.33;;;26.60;99.90;;;;;;5090075;28;20213;-72
2023/01/01 07:48:45;;;;;;;14.03;2.47;;;26.50;99.90;;;;;;5091349;28;20282;-72
2023/01/01 07:51:12;;;;;;;7.83;1.97;;;26.50;99.90;;;;;;5091755;28;20171;-72
2023/01/01 07:53:40;;;;;;;10.77;2.33;;;26.40;99.90;;;;;;5089657;28;20655;-73
2023/01/01 07:56:08;;;;;;;10.87;2.43;;;26.10;99.90;;;;;;5088773;28;20232;-73
2023/01/01 07:58:38;;;;;;;12.53;2.40;;;25.80;99.90;;;;;;5076000;28;20739;-72
2023/01/01 08:01:05;;;;;;;14.70;2.87;;;25.60;99.90;;;;;;5084438;28;20230;-73
2023/01/01 08:03:33;;;;;;;8.07;1.83;;;25.70;99.90;;;;;;5071786;28;20188;-73
2023/01/01 08:06:05;;;;;;;13.40;2.43;;;25.70;99.90;;;;;;5071490;28;20179;-73
2023/01/01 08:08:32;;;;;;;14.40;2.77;;;25.70;99.90;;;;;;5087697;28;20183;-73
2023/01/01 08:11:03;;;;;;;7.67;2.30;;;25.70;99.90;;;;;;5072488;28;20310;-73
2023/01/01 08:13:31;;;;;;;14.43;2.83;;;25.50;99.90;;;;;;5071449;28;20207;-73
2023/01/01 08:15:58;;;;;;;11.83;2.10;;;25.50;99.90;;;;;;5071098;28;20172;-73
2023/01/01 08:18:26;;;;;;;11.10;2.13;;;25.40;99.90;;;;;;5071361;28;20180;-73
2023/01/01 08:20:54;;;;;;;13.90;2.27;;;25.50;99.90;;;;;;5071172;28;20176;-72
2023/01/01 08:23:21;;;;;;;17.37;2.80;;;25.30;99.90;;;;;;5070947;28;20208;-72
2023/01/01 08:25:48;;;;;;;10.37;2.20;;;25.00;99.90;;;;;;5096196;28;20171;-73
2023/01/01 08:28:16;;;;;;;13.73;3.27;;;24.80;99.90;;;;;;5093783;28;20182;-72
2023/01/01 08:30:44;;;;;;;12.60;2.70;;;24.70;99.90;;;;;;5083912;28;20880;-72
2023/01/01 08:33:12;;;;;;;12.73;2.67;;;24.60;99.90;;;;;;5073745;28;20303;-73
2023/01/01 08:35:42;;;;;;;19.93;3.13;;;24.40;99.90;;;;;;5090951;28;20179;-73
2023/01/01 08:38:13;;;;;;;10.73;3.00;;;24.30;99.90;;;;;;5080560;28;20694;-73
2023/01/01 08:40:41;;;;;;;13.33;3.83;;;24.20;99.90;;;;;;5074512;28;20258;-72
2023/01/01 08:43:08;;;;;;;8.63;2.10;;;24.20;99.90;;;;;;5091157;28;20190;-72
2023/01/01 08:45:36;;;;;;;11.40;2.27;;;24.20;99.90;;;;;;5072547;28;20183;-73
2023/01/01 08:48:04;;;;;;;10.43;2.23;;;24.10;99.90;;;;;;5071046;28;20258;-73
2023/01/01 08:50:32;;;;;;;14.90;2.70;;;24.10;99.90;;;;;;5072686;28;20189;-73
2023/01/01 08:53:00;;;;;;;13.53;2.50;;;24.10;99.90;;;;;;5074093;28;20691;-73
2023/01/01 08:55:28;;;;;;;14.33;2.60;;;24.10;99.90;;;;;;5091023;28;20185;-73
2023/01/01 08:57:56;;;;;;;17.53;2.60;;;23.90;99.90;;;;;;5092998;28;20588;-73
2023/01/01 09:00:23;;;;;;;11.77;2.93;;;23.90;99.90;;;;;;5094090;28;20264;-73
2023/01/01 09:02:51;;;;;;;11.57;2.30;;;23.90;99.90;;;;;;5094555;28;20236;-73
2023/01/01 09:05:19;;;;;;;14.37;2.27;;;23.90;99.90;;;;;;5078386;28;20187;-73
2023/01/01 09:07:47;;;;;;;9.27;2.33;;;24.00;99.90;;;;;;5073961;28;20215;-73
2023/01/01 09:10:15;;;;;;;16.67;2.87;;;23.90;99.90;;;;;;5082138;28;20187;-73
2023/01/01 09:12:43;;;;;;;8.83;2.23;;;23.90;99.90;;;;;;5093083;28;20670;-73
2023/01/01 09:15:17;;;;;;;12.70;2.83;;;23.80;99.90;;;;;;5081955;28;20186;-73
2023/01/01 09:17:45;;;;;;;11.17;2.60;;;23.80;99.90;;;;;;5074238;28;20188;-73
2023/01/01 09:20:12;;;;;;;11.67;2.70;;;23.70;99.90;;;;;;5089085;28;20193;-73
2023/01/01 09:22:40;;;;;;;14.90;2.83;;;23.60;99.90;;;;;;5093949;28;20649;-72
2023/01/01 09:25:08;;;;;;;12.53;3.07;;;23.60;99.90;;;;;;5087109;28;20193;-73
2023/01/01 09:27:36;;;;;;;12.27;2.27;;;23.60;99.90;;;;;;5072779;28;20189;-73
2023/01/01 09:30:04;;;;;;;15.80;2.70;;;23.60;99.90;;;;;;5079130;28;20182;-71
2023/01/01 09:32:32;;;;;;;10.07;2.80;;;23.50;99.90;;;;;;5074002;28;20210;-72
2023/01/01 09:35:00;;;;;;;11.93;2.57;;;23.50;99.90;;;;;;5080366;28;20261;-72
2023/01/01 09:37:28;;;;;;;20.23;3.37;;;23.50;99.90;;;;;;5093247;28;20183;-73
2023/01/01 09:39:56;;;;;;;15.60;3.23;;;23.50;99.90;;;;;;5091600;28;20192;-72
2023/01/01 09:42:34;;;;;;;13.93;3.17;;;23.40;99.90;;;;;;5092694;28;20183;-74
2023/01/01 09:45:05;;;;;;;11.10;2.23;;;23.40;99.90;;;;;;5092830;28;20179;-73
2023/01/01 09:47:50;;;;;;;10.27;2.47;;;23.40;99.90;;;;;;5094024;28;20186;-74
2023/01/01 09:50:26;;;;;;;9.97;2.60;;;23.30;99.90;;;;;;5092143;28;20194;-73
2023/01/01 09:53:10;;;;;;;13.83;3.13;;;23.30;99.90;;;;;;5093861;28;21032;-74
2023/01/01 09:56:14;;;;;;;14.93;2.80;;;23.30;99.90;;;;;;5081642;28;20223;-73
2023/01/01 09:58:42;;;;;;;12.87;3.20;;;23.20;99.90;;;;;;5031929;28;20241;-73
2023/01/01 10:01:15;;;;;;;13.43;2.80;;;23.20;99.90;;;;;;5072587;28;20184;-73
2023/01/01 10:03:59;;;;;;;15.57;3.70;;;23.20;99.90;;;;;;5075866;28;20178;-72
2023/01/01 10:06:33;;;;;;;15.50;2.70;;;23.20;99.90;;;;;;5090796;28;20216;-74
2023/01/01 10:09:23;;;;;;;12.70;3.03;;;23.20;99.90;;;;;;5077355;28;20175;-72
2023/01/01 10:11:59;;;;;;;9.47;2.63;;;23.20;99.90;;;;;;5088310;28;20227;-73
2023/01/01 10:14:32;;;;;;;13.03;3.27;;;23.20;99.90;;;;;;5091241;28;20249;-72
2023/01/01 10:17:22;;;;;;;12.43;2.47;;;23.20;99.90;;;;;;5073137;28;20175;-72
2023/01/01 10:20:05;;;;;;;15.20;2.60;;;23.20;99.90;;;;;;5060544;28;20230;-72
2023/01/01 10:22:41;;;;;;;10.50;2.67;;;23.20;99.90;;;;;;5073016;28;20636;-72
2023/01/01 10:25:31;;;;;;;15.53;3.00;;;23.20;99.90;;;;;;5078931;28;20177;-72
2023/01/01 10:28:05;;;;;;;15.20;2.87;;;23.20;99.90;;;;;;5091515;28;20248;-72
2023/01/01 10:30:33;;;;;;;12.70;2.77;;;23.20;99.90;;;;;;5093174;28;20601;-73
2023/01/01 10:33:01;;;;;;;14.47;2.87;;;23.10;99.90;;;;;;5087726;28;20202;-73
2023/01/01 10:35:39;;;;;;;11.83;3.03;;;23.10;99.90;;;;;;5072509;28;20212;-72
2023/01/01 10:38:07;;;;;;;15.80;2.83;;;23.00;99.90;;;;;;5072800;28;20566;-72
2023/01/01 10:40:34;;;;;;;19.23;3.00;;;23.00;99.90;;;;;;5077389;28;20171;-72
2023/01/01 10:43:03;;;;;;;12.10;2.60;;;23.00;99.90;;;;;;5092397;28;20268;-73
2023/01/01 10:46:04;;;;;;;11.47;2.60;;;23.00;99.90;;;;;;5074056;28;20189;-73
2023/01/01 10:48:34;;;;;;;8.83;2.40;;;23.00;99.90;;;;;;5068773;28;20199;-73
2023/01/01 10:51:19;;;;;;;13.00;2.43;;;22.80;99.90;;;;;;5072029;28;20180;-71
2023/01/01 10:53:56;;;;;;;10.50;2.50;;;22.90;99.90;;;;;;5075875;28;20206;-71
2023/01/01 10:56:27;;;;;;;13.80;2.87;;;22.90;99.90;;;;;;5092753;28;20229;-72
2023/01/01 10:59:00;;;;;;;15.00;2.40;;;22.80;99.90;;;;;;5092212;28;20198;-72
2023/01/01 11:01:30;;;;;;;12.03;2.67;;;22.80;99.90;;;;;;5092556;28;20175;-72
2023/01/01 11:04:08;;;;;;;16.00;2.97;;;22.80;99.90;;;;;;5087422;28;20261;-72
2023/01/01 11:06:38;;;;;;;13.63;3.23;;;22.80;99.90;;;;;;5072225;28;20260;-73
2023/01/01 11:09:25;;;;;;;13.67;2.83;;;22.80;99.90;;;;;;5072190;28;20172;-72
2023/01/01 11:12:01;;;;;;;11.37;2.23;;;22.80;99.90;;;;;;5077267;28;20791;-72
2023/01/01 11:14:52;;;;;;;15.17;2.70;;;22.80;99.90;;;;;;5082648;28;20284;-73
2023/01/01 11:17:26;;;;;;;18.07;3.17;;;22.80;99.90;;;;;;5072358;28;20195;-72
2023/01/01 11:19:55;;;;;;;9.43;3.03;;;22.70;99.90;;;;;;5091879;28;20175;-72
2023/01/01 11:22:35;;;;;;;13.80;3.27;;;22.60;99.90;;;;;;5091321;28;20670;-73
2023/01/01 11:25:04;;;;;;;13.67;3.13;;;22.60;99.90;;;;;;5081662;28;20221;-72
2023/01/01 11:27:32;;;;;;;14.30;2.80;;;22.50;99.90;;;;;;5088345;28;20172;-73
2023/01/01 11:30:23;;;;;;;15.07;2.80;;;22.50;99.90;;;;;;5090661;28;20175;-73
2023/01/01 11:33:00;;;;;;;9.43;2.70;;;22.50;99.90;;;;;;5082254;28;20240;-73
2023/01/01 11:35:34;;;;;;;15.07;2.97;;;22.40;99.90;;;;;;5072142;28;20203;-72
2023/01/01 11:38:03;;;;;;;11.13;2.70;;;22.40;99.90;;;;;;5077659;28;20251;-72
2023/01/01 11:40:38;;;;;;;11.27;2.50;;;22.50;99.90;;;;;;5084909;28;20190;-72
2023/01/01 11:43:07;;;;;;;10.40;2.27;;;22.40;99.90;;;;;;5073030;28;20186;-73
2023/01/01 11:45:42;;;;;;;10.53;2.40;;;22.40;99.90;;;;;;5089708;28;20178;-72
2023/01/01 11:48:21;;;;;;;14.70;2.93;;;22.40;99.90;;;;;;5093211;28;20196;-73
2023/01/01 11:50:57;;;;;;;15.17;2.50;;;22.40;99.90;;;;;;5093364;28;20186;-73
2023/01/01 11:53:24;;;;;;;9.20;2.07;;;22.40;99.90;;;;;;5091745;28;20249;-73
2023/01/01 11:56:18;;;;;;;15.87;2.83;;;22.30;99.90;;;;;;5073605;28;20267;-73
2023/01/01 11:59:14;;;;;;;14.00;2.63;;;22.30;99.90;;;;;;5072942;28;20198;-72
2023/01/01 12:02:01;;;;;;;15.90;3.37;;;22.10;99.90;;;;;;5065610;28;20189;-72
2023/01/01 12:04:32;;;;;;;10.87;2.27;;;22.10;99.90;;;;;;5079963;28;20582;-71
2023/01/01 12:07:31;;;;;;;10.80;2.57;;;22.10;99.90;;;;;;5093352;28;20250;-71
2023/01/01 12:10:04;;;;;;;8.57;2.40;;;22.00;99.90;;;;;;5092786;28;20180;-72
2023/01/01 12:12:38;;;;;;;13.57;3.00;;;22.00;99.90;;;;;;5078961;28;20220;-72
2023/01/01 12:15:43;;;;;;;16.53;3.03;;;22.00;99.90;;;;;;5085124;28;20200;-73
2023/01/01 12:18:16;;;;;;;9.40;2.40;;;22.00;99.90;;;;;;5092629;28;20181;-73
2023/01/01 12:20:59;;;;;;;13.27;2.60;;;22.00;99.90;;;;;;5092843;28;20649;-73
2023/01/01 12:23:28;;;;;;;12.87;2.63;;;22.00;99.90;;;;;;5093171;28;20537;-72
2023/01/01 12:26:07;;;;;;;12.40;2.67;;;22.00;99.90;;;;;;5077380;28;20535;-72
2023/01/01 12:28:55;;;;;;;10.53;2.30;;;21.90;99.90;;;;;;5076498;28;20221;-72
2023/01/01 12:32:07;;;;;;;11.73;2.50;;;21.60;99.90;;;;;;5076932;28;20298;-72
2023/01/01 12:34:44;;;;;;;10.63;2.30;;;21.50;99.90;;;;;;5084834;28;20234;-73
2023/01/01 12:37:30;;;;;;;12.23;2.60;;;21.40;99.90;;;;;;5096718;28;20172;-73
2023/01/01 12:40:34;;;;;;;12.77;2.20;;;21.50;99.90;;;;;;5096668;28;20640;-72
2023/01/01 12:43:04;;;;;;;12.37;2.77;;;21.40;99.90;;;;;;5095123;28;20186;-72
2023/01/01 12:45:50;;;;;;;13.27;2.47;;;21.40;99.90;;;;;;5079249;28;20187;-73
2023/01/01 12:48:27;;;;;;;12.33;2.73;;;21.30;99.90;;;;;;5074852;28;20187;-72
2023/01/01 12:51:34;;;;;;;7.53;2.33;;;21.20;99.90;;;;;;5074736;28;20179;-73
2023/01/01 12:54:19;;;;;;;15.63;3.10;;;21.10;99.90;;;;;;5106198;28;20249;-73
2023/01/01 12:57:09;;;;;;;10.47;2.97;;;21.10;99.90;;;;;;5076046;28;20181;-71
2023/01/01 12:59:38;;;;;;;12.77;3.07;;;21.00;99.90;;;;;;5077370;28;20698;-72
2023/01/01 13:02:24;;;;;;;10.50;2.40;;;20.90;99.90;;;;;;5095604;28;20572;-72
2023/01/01 13:05:03;;;;;;;13.73;2.80;;;21.00;99.90;;;;;;5091880;28;20189;-72
2023/01/01 13:07:38;;;;;;;15.23;2.77;;;20.90;99.90;;;;;;5096151;28;20523;-72
2023/01/01 13:10:44;;;;;;;8.53;2.30;;;20.80;99.90;;;;;;5095600;28;20174;-72
2023/01/01 13:13:13;;;;;;;11.80;2.50;;;20.70;99.90;;;;;;5087089;28;20220;-72
2023/01/01 13:15:43;;;;;;;9.53;2.30;;;20.60;99.90;;;;;;5075633;28;20172;-72
2023/01/01 13:18:13;;;;;;;10.13;2.57;;;20.60;99.90;;;;;;5074344;28;20643;-73